sensor_id;sensor_type;location;lat;lon;timestamp;temperature;humidity
10873;DHT22;34586;53.616;10.032;2023-09-12T00:00:54;20.00;99.90
10873;DHT22;34586;53.616;10.032;2023-09-12T00:03:21;20.00;99.90
10873;DHT22;34586;53.616;10.032;2023-09-12T00:05:54;20.00;99.90
10873;DHT22;34586;53.616;10.032;2023-09-12T00:08:20;20.00;99.90
10873;DHT22;34586;53.616;10.032;2023-09-12T00:10:45;19.90;99.90
10873;DHT22;34586;53.616;10.032;2023-09-12T00:13:11;19.90;99.90
10873;DHT22;34586;53.616;10.032;2023-09-12T00:15:37;19.90;99.90
10873;DHT22;34586;53.616;10.032;2023-09-12T00:18:02;19.90;99.90
10873;DHT22;34586;53.616;10.032;2023-09-12T00:20:28;20.00;99.90
10873;DHT22;34586;53.616;10.032;2023-09-12T00:22:54;20.00;99.90
10873;DHT22;34586;53.616;10.032;2023-09-12T00:25:20;20.10;99.90
10873;DHT22;34586;53.616;10.032;2023-09-12T00:27:46;20.10;99.90
10873;DHT22;34586;53.616;10.032;2023-09-12T00:30:14;20.10;99.90
10873;DHT22;34586;53.616;10.032;2023-09-12T00:32:40;20.10;99.90
10873;DHT22;34586;53.616;10.032;2023-09-12T00:35:06;20.10;99.90
10873;DHT22;34586;53.616;10.032;2023-09-12T00:37:31;20.10;99.90
10873;DHT22;34586;53.616;10.032;2023-09-12T00:39:57;20.10;99.90
10873;DHT22;34586;53.616;10.032;2023-09-12T00:42:25;20.10;99.90
10873;DHT22;34586;53.616;10.032;2023-09-12T00:44:51;20.10;99.90
10873;DHT22;34586;53.616;10.032;2023-09-12T00:47:18;20.10;99.90
10873;DHT22;34586;53.616;10.032;2023-09-12T00:49:45;20.00;99.90
10873;DHT22;34586;53.616;10.032;2023-09-12T00:52:12;20.00;99.90
10873;DHT22;34586;53.616;10.032;2023-09-12T00:54:47;20.00;99.90
10873;DHT22;34586;53.616;10.032;2023-09-12T00:57:13;20.00;99.90
10873;DHT22;34586;53.616;10.032;2023-09-12T00:59:39;19.90;99.90
10873;DHT22;34586;53.616;10.032;2023-09-12T01:02:05;19.90;99.90
10873;DHT22;34586;53.616;10.032;2023-09-12T01:04:31;19.90;99.90
10873;DHT22;34586;53.616;10.032;2023-09-12T01:06:58;19.80;99.90
10873;DHT22;34586;53.616;10.032;2023-09-12T01:09:24;19.80;99.90
10873;DHT22;34586;53.616;10.032;2023-09-12T01:11:50;19.80;99.90
10873;DHT22;34586;53.616;10.032;2023-09-12T01:14:15;19.80;99.90
10873;DHT22;34586;53.616;10.032;2023-09-12T01:16:41;19.70;99.90
10873;DHT22;34586;53.616;10.032;2023-09-12T01:19:08;19.70;99.90
10873;DHT22;34586;53.616;10.032;2023-09-12T01:27:29;19.70;99.90
10873;DHT22;34586;53.616;10.032;2023-09-12T01:30:01;19.60;99.90
10873;DHT22;34586;53.616;10.032;2023-09-12T01:32:29;19.70;99.90
10873;DHT22;34586;53.616;10.032;2023-09-12T01:34:55;19.60;99.90
10873;DHT22;34586;53.616;10.032;2023-09-12T01:37:20;19.60;99.90
10873;DHT22;34586;53.616;10.032;2023-09-12T01:39:46;19.60;99.90
10873;DHT22;34586;53.616;10.032;2023-09-12T01:42:14;19.60;99.90
10873;DHT22;34586;53.616;10.032;2023-09-12T01:44:44;19.60;99.90
10873;DHT22;34586;53.616;10.032;2023-09-12T01:47:11;19.60;99.90
10873;DHT22;34586;53.616;10.032;2023-09-12T01:49:39;19.60;99.90
10873;DHT22;34586;53.616;10.032;2023-09-12T01:52:06;19.60;99.90
10873;DHT22;34586;53.616;10.032;2023-09-12T01:54:33;19.60;99.90
10873;DHT22;34586;53.616;10.032;2023-09-12T01:56:59;19.60;99.90
10873;DHT22;34586;53.616;10.032;2023-09-12T01:59:26;19.60;99.90
10873;DHT22;34586;53.616;10.032;2023-09-12T02:01:51;19.60;99.90
10873;DHT22;34586;53.616;10.032;2023-09-12T02:04:17;19.60;99.90
10873;DHT22;34586;53.616;10.032;2023-09-12T02:06:43;19.60;99.90
10873;DHT22;34586;53.616;10.032;2023-09-12T02:09:08;19.60;99.90
10873;DHT22;34586;53.616;10.032;2023-09-12T02:11:34;19.60;99.90
10873;DHT22;34586;53.616;10.032;2023-09-12T02:13:59;19.60;99.90
10873;DHT22;34586;53.616;10.032;2023-09-12T02:16:25;19.60;99.90
10873;DHT22;34586;53.616;10.032;2023-09-12T02:18:51;19.60;99.90
10873;DHT22;34586;53.616;10.032;2023-09-12T02:21:16;19.60;99.90
10873;DHT22;34586;53.616;10.032;2023-09-12T02:23:42;19.60;99.90
10873;DHT22;34586;53.616;10.032;2023-09-12T02:26:08;19.60;99.90
10873;DHT22;34586;53.616;10.032;2023-09-12T02:28:33;19.50;99.90
10873;DHT22;34586;53.616;10.032;2023-09-12T02:30:59;19.50;99.90
10873;DHT22;34586;53.616;10.032;2023-09-12T02:33:24;19.50;99.90
10873;DHT22;34586;53.616;10.032;2023-09-12T02:35:50;19.50;99.90
10873;DHT22;34586;53.616;10.032;2023-09-12T02:38:18;19.50;99.90
10873;DHT22;34586;53.616;10.032;2023-09-12T02:40:44;19.50;99.90
10873;DHT22;34586;53.616;10.032;2023-09-12T02:43:11;19.50;99.90
10873;DHT22;34586;53.616;10.032;2023-09-12T02:45:39;19.50;99.90
10873;DHT22;34586;53.616;10.032;2023-09-12T02:48:05;19.50;99.90
10873;DHT22;34586;53.616;10.032;2023-09-12T02:50:31;19.50;99.90
10873;DHT22;34586;53.616;10.032;2023-09-12T02:52:56;19.50;99.90
10873;DHT22;34586;53.616;10.032;2023-09-12T02:55:22;19.50;99.90
10873;DHT22;34586;53.616;10.032;2023-09-12T02:57:47;19.50;99.90
10873;DHT22;34586;53.616;10.032;2023-09-12T03:00:13;19.50;99.90
10873;DHT22;34586;53.616;10.032;2023-09-12T03:02:39;19.50;99.90
10873;DHT22;34586;53.616;10.032;2023-09-12T03:05:04;19.50;99.90
10873;DHT22;34586;53.616;10.032;2023-09-12T03:07:30;19.50;99.90
10873;DHT22;34586;53.616;10.032;2023-09-12T03:09:56;19.50;99.90
10873;DHT22;34586;53.616;10.032;2023-09-12T03:12:21;19.50;99.90
10873;DHT22;34586;53.616;10.032;2023-09-12T03:14:47;19.60;99.90
10873;DHT22;34586;53.616;10.032;2023-09-12T03:17:13;19.60;99.90
10873;DHT22;34586;53.616;10.032;2023-09-12T03:19:38;19.50;99.90
10873;DHT22;34586;53.616;10.032;2023-09-12T03:22:04;19.60;99.90
10873;DHT22;34586;53.616;10.032;2023-09-12T03:24:29;19.60;99.90
10873;DHT22;34586;53.616;10.032;2023-09-12T03:26:56;19.60;99.90
10873;DHT22;34586;53.616;10.032;2023-09-12T03:29:21;19.60;99.90
10873;DHT22;34586;53.616;10.032;2023-09-12T03:31:48;19.60;99.90
10873;DHT22;34586;53.616;10.032;2023-09-12T03:34:13;19.60;99.90
10873;DHT22;34586;53.616;10.032;2023-09-12T03:36:39;19.60;99.90
10873;DHT22;34586;53.616;10.032;2023-09-12T03:39:05;19.60;99.90
10873;DHT22;34586;53.616;10.032;2023-09-12T03:41:34;19.60;99.90
10873;DHT22;34586;53.616;10.032;2023-09-12T03:44:00;19.50;99.90
10873;DHT22;34586;53.616;10.032;2023-09-12T03:46:26;19.50;99.90
10873;DHT22;34586;53.616;10.032;2023-09-12T03:48:51;19.50;99.90
10873;DHT22;34586;53.616;10.032;2023-09-12T03:51:17;19.50;99.90
10873;DHT22;34586;53.616;10.032;2023-09-12T03:53:42;19.50;99.90
10873;DHT22;34586;53.616;10.032;2023-09-12T03:56:08;19.50;99.90
10873;DHT22;34586;53.616;10.032;2023-09-12T03:58:38;19.50;99.90
10873;DHT22;34586;53.616;10.032;2023-09-12T04:01:03;19.40;99.90
10873;DHT22;34586;53.616;10.032;2023-09-12T04:03:29;19.50;99.90
10873;DHT22;34586;53.616;10.032;2023-09-12T04:05:54;19.50;99.90
10873;DHT22;34586;53.616;10.032;2023-09-12T04:08:20;19.40;99.90
10873;DHT22;34586;53.616;10.032;2023-09-12T04:10:46;19.40;99.90
10873;DHT22;34586;53.616;10.032;2023-09-12T04:13:11;19.40;99.90
10873;DHT22;34586;53.616;10.032;2023-09-12T04:15:37;19.40;99.90
10873;DHT22;34586;53.616;10.032;2023-09-12T04:18:03;19.40;99.90
10873;DHT22;34586;53.616;10.032;2023-09-12T04:20:28;19.40;99.90
10873;DHT22;34586;53.616;10.032;2023-09-12T04:22:54;19.40;99.90
10873;DHT22;34586;53.616;10.032;2023-09-12T04:25:20;19.40;99.90
10873;DHT22;34586;53.616;10.032;2023-09-12T04:27:45;19.40;99.90
10873;DHT22;34586;53.616;10.032;2023-09-12T04:30:11;19.40;99.90
10873;DHT22;34586;53.616;10.032;2023-09-12T04:32:37;19.40;99.90
10873;DHT22;34586;53.616;10.032;2023-09-12T04:35:03;19.40;99.90
10873;DHT22;34586;53.616;10.032;2023-09-12T04:37:29;19.30;99.90
10873;DHT22;34586;53.616;10.032;2023-09-12T04:39:54;19.30;99.90
10873;DHT22;34586;53.616;10.032;2023-09-12T04:42:20;19.30;99.90
10873;DHT22;34586;53.616;10.032;2023-09-12T04:44:46;19.30;99.90
10873;DHT22;34586;53.616;10.032;2023-09-12T04:47:11;19.30;99.90
10873;DHT22;34586;53.616;10.032;2023-09-12T04:49:38;19.20;99.90
10873;DHT22;34586;53.616;10.032;2023-09-12T04:52:04;19.20;99.90
10873;DHT22;34586;53.616;10.032;2023-09-12T04:54:30;19.20;99.90
10873;DHT22;34586;53.616;10.032;2023-09-12T04:56:55;19.20;99.90
10873;DHT22;34586;53.616;10.032;2023-09-12T04:59:21;19.20;99.90
10873;DHT22;34586;53.616;10.032;2023-09-12T05:01:47;19.20;99.90
10873;DHT22;34586;53.616;10.032;2023-09-12T05:04:12;19.20;99.90
10873;DHT22;34586;53.616;10.032;2023-09-12T05:06:40;19.30;99.90
10873;DHT22;34586;53.616;10.032;2023-09-12T05:09:05;19.30;99.90
10873;DHT22;34586;53.616;10.032;2023-09-12T05:11:34;19.30;99.90
10873;DHT22;34586;53.616;10.032;2023-09-12T05:14:00;19.30;99.90
10873;DHT22;34586;53.616;10.032;2023-09-12T05:16:28;19.30;99.90
10873;DHT22;34586;53.616;10.032;2023-09-12T05:18:54;19.30;99.90
10873;DHT22;34586;53.616;10.032;2023-09-12T05:21:20;19.30;99.90
10873;DHT22;34586;53.616;10.032;2023-09-12T05:23:46;19.30;99.90
10873;DHT22;34586;53.616;10.032;2023-09-12T05:26:11;19.30;99.90
10873;DHT22;34586;53.616;10.032;2023-09-12T05:28:37;19.20;99.90
10873;DHT22;34586;53.616;10.032;2023-09-12T05:31:02;19.30;99.90
10873;DHT22;34586;53.616;10.032;2023-09-12T05:33:28;19.30;99.90
10873;DHT22;34586;53.616;10.032;2023-09-12T05:35:54;19.30;99.90
10873;DHT22;34586;53.616;10.032;2023-09-12T05:38:19;19.30;99.90
10873;DHT22;34586;53.616;10.032;2023-09-12T05:40:45;19.30;99.90
10873;DHT22;34586;53.616;10.032;2023-09-12T05:43:10;19.30;99.90
10873;DHT22;34586;53.616;10.032;2023-09-12T05:45:36;19.30;99.90
10873;DHT22;34586;53.616;10.032;2023-09-12T05:48:02;19.30;99.90
10873;DHT22;34586;53.616;10.032;2023-09-12T05:50:28;19.30;99.90
10873;DHT22;34586;53.616;10.032;2023-09-12T05:52:54;19.30;99.90
10873;DHT22;34586;53.616;10.032;2023-09-12T05:55:19;19.40;99.90
10873;DHT22;34586;53.616;10.032;2023-09-12T05:57:45;19.30;99.90
10873;DHT22;34586;53.616;10.032;2023-09-12T06:00:13;19.30;99.90
10873;DHT22;34586;53.616;10.032;2023-09-12T06:02:40;19.30;99.90
10873;DHT22;34586;53.616;10.032;2023-09-12T06:05:07;19.40;99.90
10873;DHT22;34586;53.616;10.032;2023-09-12T06:07:34;19.40;99.90
10873;DHT22;34586;53.616;10.032;2023-09-12T06:10:01;19.40;99.90
10873;DHT22;34586;53.616;10.032;2023-09-12T06:12:26;19.40;99.90
10873;DHT22;34586;53.616;10.032;2023-09-12T06:14:52;19.40;99.90
10873;DHT22;34586;53.616;10.032;2023-09-12T06:17:19;19.40;99.90
10873;DHT22;34586;53.616;10.032;2023-09-12T06:19:45;19.50;99.90
10873;DHT22;34586;53.616;10.032;2023-09-12T06:22:10;19.50;99.90
10873;DHT22;34586;53.616;10.032;2023-09-12T06:24:36;19.50;99.90
10873;DHT22;34586;53.616;10.032;2023-09-12T06:27:04;19.60;99.90
10873;DHT22;34586;53.616;10.032;2023-09-12T06:29:29;19.60;99.90
10873;DHT22;34586;53.616;10.032;2023-09-12T06:31:55;19.70;99.90
10873;DHT22;34586;53.616;10.032;2023-09-12T06:34:21;19.70;99.90
10873;DHT22;34586;53.616;10.032;2023-09-12T06:36:47;19.70;99.90
10873;DHT22;34586;53.616;10.032;2023-09-12T06:39:13;19.70;99.90
10873;DHT22;34586;53.616;10.032;2023-09-12T06:41:39;19.70;99.90
10873;DHT22;34586;53.616;10.032;2023-09-12T06:44:04;19.70;99.90
10873;DHT22;34586;53.616;10.032;2023-09-12T06:46:30;19.70;99.90
10873;DHT22;34586;53.616;10.032;2023-09-12T06:48:56;19.80;99.90
10873;DHT22;34586;53.616;10.032;2023-09-12T06:51:25;19.80;99.90
10873;DHT22;34586;53.616;10.032;2023-09-12T06:53:51;19.80;99.90
10873;DHT22;34586;53.616;10.032;2023-09-12T06:56:17;19.80;99.90
10873;DHT22;34586;53.616;10.032;2023-09-12T06:58:42;19.80;99.90
10873;DHT22;34586;53.616;10.032;2023-09-12T07:01:08;19.90;99.90
10873;DHT22;34586;53.616;10.032;2023-09-12T07:03:34;19.90;99.90
10873;DHT22;34586;53.616;10.032;2023-09-12T07:06:00;19.90;99.90
10873;DHT22;34586;53.616;10.032;2023-09-12T07:08:26;20.00;99.90
10873;DHT22;34586;53.616;10.032;2023-09-12T07:10:52;20.00;99.90
10873;DHT22;34586;53.616;10.032;2023-09-12T07:13:22;20.10;99.90
10873;DHT22;34586;53.616;10.032;2023-09-12T07:15:48;20.10;99.90
10873;DHT22;34586;53.616;10.032;2023-09-12T07:18:13;20.20;99.90
10873;DHT22;34586;53.616;10.032;2023-09-12T07:20:40;20.20;99.90
10873;DHT22;34586;53.616;10.032;2023-09-12T07:23:06;20.30;99.90
10873;DHT22;34586;53.616;10.032;2023-09-12T07:25:39;20.30;99.90
10873;DHT22;34586;53.616;10.032;2023-09-12T07:28:06;20.30;99.90
10873;DHT22;34586;53.616;10.032;2023-09-12T07:30:32;20.40;99.90
10873;DHT22;34586;53.616;10.032;2023-09-12T07:32:57;20.40;99.90
10873;DHT22;34586;53.616;10.032;2023-09-12T07:35:23;20.40;99.90
10873;DHT22;34586;53.616;10.032;2023-09-12T07:37:50;20.40;99.90
10873;DHT22;34586;53.616;10.032;2023-09-12T07:40:15;20.40;99.90
10873;DHT22;34586;53.616;10.032;2023-09-12T07:42:41;20.40;99.90
10873;DHT22;34586;53.616;10.032;2023-09-12T07:45:07;20.40;99.90
10873;DHT22;34586;53.616;10.032;2023-09-12T07:47:33;20.40;99.90
10873;DHT22;34586;53.616;10.032;2023-09-12T07:49:59;20.40;99.90
10873;DHT22;34586;53.616;10.032;2023-09-12T07:52:26;20.40;99.90
10873;DHT22;34586;53.616;10.032;2023-09-12T07:54:52;20.50;99.90
10873;DHT22;34586;53.616;10.032;2023-09-12T07:57:23;20.50;99.90
10873;DHT22;34586;53.616;10.032;2023-09-12T07:59:48;20.50;99.90
10873;DHT22;34586;53.616;10.032;2023-09-12T08:02:14;20.60;99.90
10873;DHT22;34586;53.616;10.032;2023-09-12T08:04:40;20.60;99.90
10873;DHT22;34586;53.616;10.032;2023-09-12T08:07:05;20.70;99.90
10873;DHT22;34586;53.616;10.032;2023-09-12T08:09:53;20.70;99.90
10873;DHT22;34586;53.616;10.032;2023-09-12T08:12:20;20.80;99.90
10873;DHT22;34586;53.616;10.032;2023-09-12T08:14:45;20.70;99.90
10873;DHT22;34586;53.616;10.032;2023-09-12T08:17:12;20.80;99.90
10873;DHT22;34586;53.616;10.032;2023-09-12T08:19:38;20.70;99.90
10873;DHT22;34586;53.616;10.032;2023-09-12T08:22:04;20.70;99.90
10873;DHT22;34586;53.616;10.032;2023-09-12T08:24:30;20.80;99.90
10873;DHT22;34586;53.616;10.032;2023-09-12T08:26:56;20.90;99.90
10873;DHT22;34586;53.616;10.032;2023-09-12T08:29:21;21.00;99.90
10873;DHT22;34586;53.616;10.032;2023-09-12T08:31:47;21.10;99.90
10873;DHT22;34586;53.616;10.032;2023-09-12T08:34:13;21.30;99.90
10873;DHT22;34586;53.616;10.032;2023-09-12T08:36:39;21.40;99.90
10873;DHT22;34586;53.616;10.032;2023-09-12T08:39:05;21.50;99.90
10873;DHT22;34586;53.616;10.032;2023-09-12T08:41:33;21.60;99.90
10873;DHT22;34586;53.616;10.032;2023-09-12T08:44:01;21.60;99.90
10873;DHT22;34586;53.616;10.032;2023-09-12T08:46:27;21.50;99.90
10873;DHT22;34586;53.616;10.032;2023-09-12T08:48:56;21.60;99.90
10873;DHT22;34586;53.616;10.032;2023-09-12T08:51:23;21.70;99.90
10873;DHT22;34586;53.616;10.032;2023-09-12T08:53:51;21.80;99.90
10873;DHT22;34586;53.616;10.032;2023-09-12T08:56:18;22.00;99.90
10873;DHT22;34586;53.616;10.032;2023-09-12T08:58:44;22.10;99.90
10873;DHT22;34586;53.616;10.032;2023-09-12T09:01:13;22.10;99.90
10873;DHT22;34586;53.616;10.032;2023-09-12T09:03:41;22.20;99.90
10873;DHT22;34586;53.616;10.032;2023-09-12T09:06:09;22.40;99.90
10873;DHT22;34586;53.616;10.032;2023-09-12T09:08:36;22.40;99.90
10873;DHT22;34586;53.616;10.032;2023-09-12T09:11:02;22.30;99.90
10873;DHT22;34586;53.616;10.032;2023-09-12T09:13:35;22.50;99.90
10873;DHT22;34586;53.616;10.032;2023-09-12T09:16:17;22.50;99.90
10873;DHT22;34586;53.616;10.032;2023-09-12T09:18:55;22.60;99.90
10873;DHT22;34586;53.616;10.032;2023-09-12T09:21:23;22.60;99.90
10873;DHT22;34586;53.616;10.032;2023-09-12T09:23:53;22.50;99.90
10873;DHT22;34586;53.616;10.032;2023-09-12T09:26:19;22.70;99.90
10873;DHT22;34586;53.616;10.032;2023-09-12T09:28:46;22.80;99.90
10873;DHT22;34586;53.616;10.032;2023-09-12T09:31:25;22.90;99.90
10873;DHT22;34586;53.616;10.032;2023-09-12T09:33:51;22.90;99.90
10873;DHT22;34586;53.616;10.032;2023-09-12T09:36:17;22.90;99.90
10873;DHT22;34586;53.616;10.032;2023-09-12T09:38:43;23.00;99.90
10873;DHT22;34586;53.616;10.032;2023-09-12T09:41:09;23.00;99.90
10873;DHT22;34586;53.616;10.032;2023-09-12T09:43:35;23.00;99.90
10873;DHT22;34586;53.616;10.032;2023-09-12T09:46:01;23.00;99.90
10873;DHT22;34586;53.616;10.032;2023-09-12T09:48:28;22.90;99.90
10873;DHT22;34586;53.616;10.032;2023-09-12T09:51:01;22.90;99.90
10873;DHT22;34586;53.616;10.032;2023-09-12T09:53:27;23.00;99.90
10873;DHT22;34586;53.616;10.032;2023-09-12T09:56:08;22.90;99.90
10873;DHT22;34586;53.616;10.032;2023-09-12T09:58:49;22.90;99.90
10873;DHT22;34586;53.616;10.032;2023-09-12T10:01:18;22.90;99.90
10873;DHT22;34586;53.616;10.032;2023-09-12T10:03:46;22.90;99.90
10873;DHT22;34586;53.616;10.032;2023-09-12T10:06:16;22.90;99.90
10873;DHT22;34586;53.616;10.032;2023-09-12T10:08:49;22.70;99.90
10873;DHT22;34586;53.616;10.032;2023-09-12T10:11:16;22.60;99.90
10873;DHT22;34586;53.616;10.032;2023-09-12T10:13:46;22.50;99.90
10873;DHT22;34586;53.616;10.032;2023-09-12T10:16:16;22.40;99.90
10873;DHT22;34586;53.616;10.032;2023-09-12T10:24:27;22.30;99.90
10873;DHT22;34586;53.616;10.032;2023-09-12T10:26:53;22.20;99.90
10873;DHT22;34586;53.616;10.032;2023-09-12T10:29:20;22.20;99.90
10873;DHT22;34586;53.616;10.032;2023-09-12T10:31:48;22.20;99.90
10873;DHT22;34586;53.616;10.032;2023-09-12T10:34:14;22.10;99.90
10873;DHT22;34586;53.616;10.032;2023-09-12T10:36:41;22.00;99.90
10873;DHT22;34586;53.616;10.032;2023-09-12T10:39:09;21.90;99.90
10873;DHT22;34586;53.616;10.032;2023-09-12T10:41:37;21.80;99.90
10873;DHT22;34586;53.616;10.032;2023-09-12T10:44:10;21.70;99.90
10873;DHT22;34586;53.616;10.032;2023-09-12T10:46:40;21.70;99.90
10873;DHT22;34586;53.616;10.032;2023-09-12T10:49:11;21.70;99.90
10873;DHT22;34586;53.616;10.032;2023-09-12T10:51:39;21.60;99.90
10873;DHT22;34586;53.616;10.032;2023-09-12T10:54:06;21.60;99.90
10873;DHT22;34586;53.616;10.032;2023-09-12T10:56:33;21.60;99.90
10873;DHT22;34586;53.616;10.032;2023-09-12T11:01:32;21.60;99.90
10873;DHT22;34586;53.616;10.032;2023-09-12T11:03:58;21.60;99.90
10873;DHT22;34586;53.616;10.032;2023-09-12T11:06:31;21.60;99.90
10873;DHT22;34586;53.616;10.032;2023-09-12T11:09:18;21.70;99.90
10873;DHT22;34586;53.616;10.032;2023-09-12T11:12:02;21.80;99.90
10873;DHT22;34586;53.616;10.032;2023-09-12T11:14:28;21.80;99.90
10873;DHT22;34586;53.616;10.032;2023-09-12T11:19:52;21.70;99.90
10873;DHT22;34586;53.616;10.032;2023-09-12T11:24:48;21.60;99.90
10873;DHT22;34586;53.616;10.032;2023-09-12T11:27:14;21.70;99.90
10873;DHT22;34586;53.616;10.032;2023-09-12T11:29:40;21.70;99.90
10873;DHT22;34586;53.616;10.032;2023-09-12T11:32:06;21.70;99.90
10873;DHT22;34586;53.616;10.032;2023-09-12T11:37:02;21.80;99.90
10873;DHT22;34586;53.616;10.032;2023-09-12T11:39:31;21.80;99.90
10873;DHT22;34586;53.616;10.032;2023-09-12T11:41:59;21.80;99.90
10873;DHT22;34586;53.616;10.032;2023-09-12T11:44:26;21.70;99.90
10873;DHT22;34586;53.616;10.032;2023-09-12T11:46:53;21.80;99.90
10873;DHT22;34586;53.616;10.032;2023-09-12T11:49:19;21.70;99.90
10873;DHT22;34586;53.616;10.032;2023-09-12T11:54:15;21.70;99.90
10873;DHT22;34586;53.616;10.032;2023-09-12T11:56:41;21.70;99.90
10873;DHT22;34586;53.616;10.032;2023-09-12T11:59:07;21.80;99.90
10873;DHT22;34586;53.616;10.032;2023-09-12T12:01:33;21.80;99.90
10873;DHT22;34586;53.616;10.032;2023-09-12T12:03:59;21.80;99.90
10873;DHT22;34586;53.616;10.032;2023-09-12T12:06:24;21.80;99.90
10873;DHT22;34586;53.616;10.032;2023-09-12T12:08:50;21.90;99.90
10873;DHT22;34586;53.616;10.032;2023-09-12T12:11:20;21.90;99.90
10873;DHT22;34586;53.616;10.032;2023-09-12T12:13:45;22.00;99.90
10873;DHT22;34586;53.616;10.032;2023-09-12T12:16:15;22.00;99.90
10873;DHT22;34586;53.616;10.032;2023-09-12T12:18:42;22.10;99.90
10873;DHT22;34586;53.616;10.032;2023-09-12T12:21:07;22.00;99.90
10873;DHT22;34586;53.616;10.032;2023-09-12T12:23:33;22.00;99.90
10873;DHT22;34586;53.616;10.032;2023-09-12T12:26:09;22.00;99.90
10873;DHT22;34586;53.616;10.032;2023-09-12T12:28:38;21.90;99.90
10873;DHT22;34586;53.616;10.032;2023-09-12T12:31:04;21.90;99.90
10873;DHT22;34586;53.616;10.032;2023-09-12T12:33:30;22.00;99.90
10873;DHT22;34586;53.616;10.032;2023-09-12T12:36:05;21.90;99.90
10873;DHT22;34586;53.616;10.032;2023-09-12T12:38:37;22.00;99.90
10873;DHT22;34586;53.616;10.032;2023-09-12T12:41:03;22.00;99.90
10873;DHT22;34586;53.616;10.032;2023-09-12T12:43:29;22.00;99.90
10873;DHT22;34586;53.616;10.032;2023-09-12T12:45:56;22.00;99.90
10873;DHT22;34586;53.616;10.032;2023-09-12T12:48:32;22.00;99.90
10873;DHT22;34586;53.616;10.032;2023-09-12T12:50:58;22.10;99.90
10873;DHT22;34586;53.616;10.032;2023-09-12T12:53:44;22.20;99.90
10873;DHT22;34586;53.616;10.032;2023-09-12T12:56:14;22.10;99.90
10873;DHT22;34586;53.616;10.032;2023-09-12T12:58:46;22.10;99.90
10873;DHT22;34586;53.616;10.032;2023-09-12T13:01:12;22.20;99.90
10873;DHT22;34586;53.616;10.032;2023-09-12T13:03:37;22.20;99.90
10873;DHT22;34586;53.616;10.032;2023-09-12T13:06:03;22.10;99.90
10873;DHT22;34586;53.616;10.032;2023-09-12T13:08:28;22.10;99.90
10873;DHT22;34586;53.616;10.032;2023-09-12T13:10:54;22.20;99.90
10873;DHT22;34586;53.616;10.032;2023-09-12T13:13:20;22.30;99.90
10873;DHT22;34586;53.616;10.032;2023-09-12T13:15:46;22.30;99.90
10873;DHT22;34586;53.616;10.032;2023-09-12T13:18:11;22.40;99.90
10873;DHT22;34586;53.616;10.032;2023-09-12T13:20:37;22.50;99.90
10873;DHT22;34586;53.616;10.032;2023-09-12T13:23:03;22.50;99.90
10873;DHT22;34586;53.616;10.032;2023-09-12T13:25:28;22.70;99.90
10873;DHT22;34586;53.616;10.032;2023-09-12T13:27:54;22.80;99.90
10873;DHT22;34586;53.616;10.032;2023-09-12T13:30:20;22.90;99.90
10873;DHT22;34586;53.616;10.032;2023-09-12T13:32:45;23.10;99.90
10873;DHT22;34586;53.616;10.032;2023-09-12T13:35:11;23.20;99.90
10873;DHT22;34586;53.616;10.032;2023-09-12T13:37:37;23.50;99.90
10873;DHT22;34586;53.616;10.032;2023-09-12T13:40:03;23.60;99.90
10873;DHT22;34586;53.616;10.032;2023-09-12T13:42:32;23.90;99.90
10873;DHT22;34586;53.616;10.032;2023-09-12T13:44:57;23.90;89.20
10873;DHT22;34586;53.616;10.032;2023-09-12T13:47:23;23.80;88.80
10873;DHT22;34586;53.616;10.032;2023-09-12T13:49:49;23.70;99.90
10873;DHT22;34586;53.616;10.032;2023-09-12T13:52:17;23.60;72.80
10873;DHT22;34586;53.616;10.032;2023-09-12T13:54:42;23.60;99.90
10873;DHT22;34586;53.616;10.032;2023-09-12T13:57:08;23.60;99.90
10873;DHT22;34586;53.616;10.032;2023-09-12T13:59:34;23.60;99.90
10873;DHT22;34586;53.616;10.032;2023-09-12T14:01:59;23.50;99.90
10873;DHT22;34586;53.616;10.032;2023-09-12T14:04:25;23.40;99.90
10873;DHT22;34586;53.616;10.032;2023-09-12T14:06:50;23.30;99.90
10873;DHT22;34586;53.616;10.032;2023-09-12T14:09:17;23.30;99.90
10873;DHT22;34586;53.616;10.032;2023-09-12T14:11:42;23.20;99.90
10873;DHT22;34586;53.616;10.032;2023-09-12T14:14:09;23.10;99.90
10873;DHT22;34586;53.616;10.032;2023-09-12T14:16:34;23.00;99.90
10873;DHT22;34586;53.616;10.032;2023-09-12T14:19:00;22.90;99.90
10873;DHT22;34586;53.616;10.032;2023-09-12T14:21:25;22.90;99.90
10873;DHT22;34586;53.616;10.032;2023-09-12T14:23:51;22.90;99.90
10873;DHT22;34586;53.616;10.032;2023-09-12T14:26:16;22.90;99.90
10873;DHT22;34586;53.616;10.032;2023-09-12T14:28:42;22.90;99.90
10873;DHT22;34586;53.616;10.032;2023-09-12T14:31:07;22.90;99.90
10873;DHT22;34586;53.616;10.032;2023-09-12T14:33:39;23.00;99.90
10873;DHT22;34586;53.616;10.032;2023-09-12T14:36:07;23.00;99.90
10873;DHT22;34586;53.616;10.032;2023-09-12T14:38:33;23.10;99.90
10873;DHT22;34586;53.616;10.032;2023-09-12T14:40:58;23.10;99.90
10873;DHT22;34586;53.616;10.032;2023-09-12T14:43:24;23.30;90.00
10873;DHT22;34586;53.616;10.032;2023-09-12T14:45:50;23.30;53.20
10873;DHT22;34586;53.616;10.032;2023-09-12T14:48:15;23.30;62.50
10873;DHT22;34586;53.616;10.032;2023-09-12T14:50:41;23.50;22.90
10873;DHT22;34586;53.616;10.032;2023-09-12T14:53:07;23.50;1.00
10873;DHT22;34586;53.616;10.032;2023-09-12T14:55:32;23.60;1.00
10873;DHT22;34586;53.616;10.032;2023-09-12T14:57:58;23.30;1.00
10873;DHT22;34586;53.616;10.032;2023-09-12T15:00:24;23.10;1.00
10873;DHT22;34586;53.616;10.032;2023-09-12T15:02:50;23.10;9.80
10873;DHT22;34586;53.616;10.032;2023-09-12T15:05:16;23.10;53.70
10873;DHT22;34586;53.616;10.032;2023-09-12T15:07:42;23.10;68.30
10873;DHT22;34586;53.616;10.032;2023-09-12T15:10:08;23.20;1.00
10873;DHT22;34586;53.616;10.032;2023-09-12T15:12:34;23.20;30.00
10873;DHT22;34586;53.616;10.032;2023-09-12T15:14:59;23.20;21.40
10873;DHT22;34586;53.616;10.032;2023-09-12T15:17:25;23.30;99.90
10873;DHT22;34586;53.616;10.032;2023-09-12T15:19:50;23.40;75.70
10873;DHT22;34586;53.616;10.032;2023-09-12T15:22:16;23.50;25.50
10873;DHT22;34586;53.616;10.032;2023-09-12T15:24:42;23.50;7.60
10873;DHT22;34586;53.616;10.032;2023-09-12T15:27:07;23.50;13.30
10873;DHT22;34586;53.616;10.032;2023-09-12T15:29:33;23.40;1.00
10873;DHT22;34586;53.616;10.032;2023-09-12T15:31:59;23.30;1.00
10873;DHT22;34586;53.616;10.032;2023-09-12T15:34:26;23.20;1.00
10873;DHT22;34586;53.616;10.032;2023-09-12T15:37:12;23.10;1.00
10873;DHT22;34586;53.616;10.032;2023-09-12T15:39:38;23.20;1.00